Laurence G Hanscom Field Bedford US
ICAO: KBED
IATA: BED
Category: Medium
Scheduled Services: No

Elevation: 133 ft
TransAlt. 18000 ft.

Airport Communications:
BOSTON APP/DEP:124.4
ATIS:124.6
CLNC DEL:121.85
CTAF:118.5
HANSCOM GND:121.7
HANSCOM COMD POST:39.71
HANSCOM TWR:118.5
UNICOM:122.95

KBED Zoom In..

Runways:

(A) RW 05 length 5107 ft width 150 ft
---- / hdg 53

(B) RW 11 length 7011 ft width 150 ft
ILS 111.15 / hdg 113

(C) RW 23 length 5107 ft width 150 ft
---- / hdg 233

(D) RW 29 length 7011 ft width 150 ft
ILS 111.15 / hdg 293

Location; KBED
Day. 26 / Time. 03.56 Zulu
* Altimeter: 29.74
* Temperature: 22° c. 71.6°f.
* Wind from: 230° Speed 05 kn.
Dewpoint: 14° c.
Visibility: 10 Statute Miles.
Clouds: Clear (automated report).

KBED 260356Z AUTO 23005KT 10SM CLR 22/14 A2974 RMK AO2 SLP080 T02170139


Wind From 230°
Speed 05 kn.

 
 
jpsmedia.com for Web Design SOUNDCLOUD worldairports.se 2018   terms of use